sensor_id;sensor_type;location;lat;lon;timestamp;pressure;altitude;pressure_sealevel;temperature;humidity
62694;BME280;48759;52.544;13.418;2022-08-18T00:01:48;100388.69;;;29.81;100.00
62694;BME280;48759;52.544;13.418;2022-08-18T00:04:15;100382.78;;;29.96;100.00
62694;BME280;48759;52.544;13.418;2022-08-18T00:06:42;100384.28;;;30.07;100.00
62694;BME280;48759;52.544;13.418;2022-08-18T00:09:09;100384.69;;;29.55;100.00
62694;BME280;48759;52.544;13.418;2022-08-18T00:11:38;100389.28;;;31.01;100.00
62694;BME280;48759;52.544;13.418;2022-08-18T00:14:05;100383.38;;;31.25;99.77
62694;BME280;48759;52.544;13.418;2022-08-18T00:16:32;100379.78;;;30.06;100.00
62694;BME280;48759;52.544;13.418;2022-08-18T00:18:59;100383.44;;;30.21;100.00
62694;BME280;48759;52.544;13.418;2022-08-18T00:21:26;100381.63;;;31.15;100.00
62694;BME280;48759;52.544;13.418;2022-08-18T00:23:53;100382.34;;;29.89;100.00
62694;BME280;48759;52.544;13.418;2022-08-18T00:26:20;100383.22;;;29.57;100.00
62694;BME280;48759;52.544;13.418;2022-08-18T00:28:46;100375.81;;;29.94;100.00
62694;BME280;48759;52.544;13.418;2022-08-18T00:31:13;100378.50;;;29.01;100.00
62694;BME280;48759;52.544;13.418;2022-08-18T00:33:39;100375.88;;;29.89;100.00
62694;BME280;48759;52.544;13.418;2022-08-18T00:36:09;100374.75;;;30.72;100.00
62694;BME280;48759;52.544;13.418;2022-08-18T00:38:36;100366.59;;;31.20;100.00
62694;BME280;48759;52.544;13.418;2022-08-18T00:41:03;100366.41;;;32.00;92.22
62694;BME280;48759;52.544;13.418;2022-08-18T00:43:34;100366.69;;;32.21;88.16
62694;BME280;48759;52.544;13.418;2022-08-18T00:46:06;100366.59;;;32.04;89.17
62694;BME280;48759;52.544;13.418;2022-08-18T00:48:33;100369.66;;;30.96;98.46
62694;BME280;48759;52.544;13.418;2022-08-18T00:51:03;100365.56;;;30.66;100.00
62694;BME280;48759;52.544;13.418;2022-08-18T00:53:36;100362.16;;;30.92;99.74
62694;BME280;48759;52.544;13.418;2022-08-18T00:56:08;100369.22;;;31.03;98.73
62694;BME280;48759;52.544;13.418;2022-08-18T00:58:39;100363.78;;;30.43;100.00
62694;BME280;48759;52.544;13.418;2022-08-18T01:01:07;100358.06;;;30.48;100.00
62694;BME280;48759;52.544;13.418;2022-08-18T01:03:35;100354.47;;;31.06;99.06
62694;BME280;48759;52.544;13.418;2022-08-18T01:06:06;100359.50;;;31.31;95.05
62694;BME280;48759;52.544;13.418;2022-08-18T01:08:40;100349.50;;;30.53;100.00
62694;BME280;48759;52.544;13.418;2022-08-18T01:11:07;100352.13;;;30.63;99.98
62694;BME280;48759;52.544;13.418;2022-08-18T01:13:35;100350.22;;;30.45;100.00
62694;BME280;48759;52.544;13.418;2022-08-18T01:16:03;100350.31;;;30.67;99.44
62694;BME280;48759;52.544;13.418;2022-08-18T01:18:50;100345.88;;;30.52;99.81
62694;BME280;48759;52.544;13.418;2022-08-18T01:21:37;100351.88;;;30.73;98.38
62694;BME280;48759;52.544;13.418;2022-08-18T01:24:21;100348.78;;;30.61;98.49
62694;BME280;48759;52.544;13.418;2022-08-18T01:27:10;100356.22;;;30.57;98.00
62694;BME280;48759;52.544;13.418;2022-08-18T01:29:35;100356.38;;;30.61;98.61
62694;BME280;48759;52.544;13.418;2022-08-18T01:32:02;100355.22;;;30.98;94.21
62694;BME280;48759;52.544;13.418;2022-08-18T01:34:29;100356.59;;;30.64;96.36
62694;BME280;48759;52.544;13.418;2022-08-18T01:36:56;100351.25;;;30.99;91.44
62694;BME280;48759;52.544;13.418;2022-08-18T01:39:24;100352.59;;;31.15;89.50
62694;BME280;48759;52.544;13.418;2022-08-18T01:41:51;100349.06;;;30.73;90.51
62694;BME280;48759;52.544;13.418;2022-08-18T01:44:17;100350.56;;;30.30;96.57
62694;BME280;48759;52.544;13.418;2022-08-18T01:46:44;100349.41;;;29.44;100.00
62694;BME280;48759;52.544;13.418;2022-08-18T01:49:10;100343.63;;;29.67;100.00
62694;BME280;48759;52.544;13.418;2022-08-18T01:51:37;100346.59;;;30.31;100.00
62694;BME280;48759;52.544;13.418;2022-08-18T01:54:09;100332.53;;;29.44;100.00
62694;BME280;48759;52.544;13.418;2022-08-18T01:56:37;100337.41;;;30.39;94.03
62694;BME280;48759;52.544;13.418;2022-08-18T01:59:05;100331.63;;;28.97;100.00
62694;BME280;48759;52.544;13.418;2022-08-18T02:01:37;100332.91;;;30.65;93.24
62694;BME280;48759;52.544;13.418;2022-08-18T02:04:04;100336.75;;;29.60;99.94
62694;BME280;48759;52.544;13.418;2022-08-18T02:06:32;100329.00;;;31.33;85.11
62694;BME280;48759;52.544;13.418;2022-08-18T02:08:58;100336.91;;;31.84;79.81
62694;BME280;48759;52.544;13.418;2022-08-18T02:11:26;100318.56;;;30.75;81.27
62694;BME280;48759;52.544;13.418;2022-08-18T02:13:54;100318.94;;;32.11;72.49
62694;BME280;48759;52.544;13.418;2022-08-18T02:16:21;100317.84;;;32.29;70.55
62694;BME280;48759;52.544;13.418;2022-08-18T02:18:47;100309.91;;;32.66;66.45
62694;BME280;48759;52.544;13.418;2022-08-18T02:21:17;100316.63;;;32.70;64.29
62694;BME280;48759;52.544;13.418;2022-08-18T02:23:46;100311.38;;;32.55;65.51
62694;BME280;48759;52.544;13.418;2022-08-18T02:26:14;100313.69;;;32.27;65.07
62694;BME280;48759;52.544;13.418;2022-08-18T02:28:42;100314.59;;;30.99;82.22
62694;BME280;48759;52.544;13.418;2022-08-18T02:31:13;100301.59;;;27.41;100.00
62694;BME280;48759;52.544;13.418;2022-08-18T02:33:41;100312.28;;;31.01;89.25
62694;BME280;48759;52.544;13.418;2022-08-18T02:36:08;100315.22;;;32.59;71.11
62694;BME280;48759;52.544;13.418;2022-08-18T02:38:35;100318.78;;;32.16;67.90
62694;BME280;48759;52.544;13.418;2022-08-18T02:41:04;100309.75;;;31.35;74.17
62694;BME280;48759;52.544;13.418;2022-08-18T02:43:32;100316.38;;;31.61;75.53
62694;BME280;48759;52.544;13.418;2022-08-18T02:45:58;100310.56;;;29.13;86.79
62694;BME280;48759;52.544;13.418;2022-08-18T02:48:26;100311.66;;;29.31;95.03
62694;BME280;48759;52.544;13.418;2022-08-18T02:50:59;100321.00;;;28.75;100.00
62694;BME280;48759;52.544;13.418;2022-08-18T02:53:26;100326.25;;;28.82;100.00
62694;BME280;48759;52.544;13.418;2022-08-18T02:55:53;100320.75;;;28.72;100.00
62694;BME280;48759;52.544;13.418;2022-08-18T02:58:19;100314.22;;;29.27;98.51
62694;BME280;48759;52.544;13.418;2022-08-18T03:00:46;100320.09;;;29.77;94.24
62694;BME280;48759;52.544;13.418;2022-08-18T03:03:13;100318.72;;;29.61;94.79
62694;BME280;48759;52.544;13.418;2022-08-18T03:05:40;100318.09;;;30.46;85.73
62694;BME280;48759;52.544;13.418;2022-08-18T03:08:07;100311.78;;;28.32;100.00
62694;BME280;48759;52.544;13.418;2022-08-18T03:10:34;100305.19;;;29.30;100.00
62694;BME280;48759;52.544;13.418;2022-08-18T03:13:01;100310.00;;;28.79;97.37
62694;BME280;48759;52.544;13.418;2022-08-18T03:15:28;100318.53;;;28.31;100.00
62694;BME280;48759;52.544;13.418;2022-08-18T03:17:54;100317.59;;;30.30;91.23
62694;BME280;48759;52.544;13.418;2022-08-18T03:20:22;100320.50;;;28.31;100.00
62694;BME280;48759;52.544;13.418;2022-08-18T03:22:50;100322.91;;;27.95;100.00
62694;BME280;48759;52.544;13.418;2022-08-18T03:25:16;100324.47;;;27.24;100.00
62694;BME280;48759;52.544;13.418;2022-08-18T03:27:43;100322.53;;;27.54;100.00
62694;BME280;48759;52.544;13.418;2022-08-18T03:30:10;100329.28;;;29.96;99.07
62694;BME280;48759;52.544;13.418;2022-08-18T03:32:36;100325.88;;;29.40;98.54
62694;BME280;48759;52.544;13.418;2022-08-18T03:35:03;100320.19;;;28.08;100.00
62694;BME280;48759;52.544;13.418;2022-08-18T03:37:30;100323.47;;;30.06;97.57
62694;BME280;48759;52.544;13.418;2022-08-18T03:39:58;100326.88;;;27.36;100.00
62694;BME280;48759;52.544;13.418;2022-08-18T03:42:25;100321.78;;;27.43;100.00
62694;BME280;48759;52.544;13.418;2022-08-18T03:44:52;100322.97;;;26.64;100.00
62694;BME280;48759;52.544;13.418;2022-08-18T03:47:18;100324.81;;;28.23;100.00
62694;BME280;48759;52.544;13.418;2022-08-18T03:49:45;100323.97;;;26.78;100.00
62694;BME280;48759;52.544;13.418;2022-08-18T03:52:13;100325.03;;;26.87;100.00
62694;BME280;48759;52.544;13.418;2022-08-18T03:54:40;100326.13;;;26.91;100.00
62694;BME280;48759;52.544;13.418;2022-08-18T03:57:09;100331.84;;;27.44;100.00
62694;BME280;48759;52.544;13.418;2022-08-18T03:59:36;100334.84;;;28.05;100.00
62694;BME280;48759;52.544;13.418;2022-08-18T04:02:05;100327.97;;;28.78;100.00
62694;BME280;48759;52.544;13.418;2022-08-18T04:04:33;100341.16;;;27.68;100.00
62694;BME280;48759;52.544;13.418;2022-08-18T04:07:02;100335.06;;;29.59;96.25
62694;BME280;48759;52.544;13.418;2022-08-18T04:09:31;100338.03;;;30.63;90.27
62694;BME280;48759;52.544;13.418;2022-08-18T04:12:03;100333.75;;;29.70;96.21
62694;BME280;48759;52.544;13.418;2022-08-18T04:14:33;100330.56;;;29.25;100.00
62694;BME280;48759;52.544;13.418;2022-08-18T04:16:59;100340.78;;;29.21;100.00
62694;BME280;48759;52.544;13.418;2022-08-18T04:19:26;100349.25;;;29.67;96.44
62694;BME280;48759;52.544;13.418;2022-08-18T04:21:53;100348.50;;;28.97;100.00
62694;BME280;48759;52.544;13.418;2022-08-18T04:24:20;100347.63;;;30.35;94.48
62694;BME280;48759;52.544;13.418;2022-08-18T04:26:47;100348.19;;;28.98;100.00
62694;BME280;48759;52.544;13.418;2022-08-18T04:29:16;100349.88;;;28.99;100.00
62694;BME280;48759;52.544;13.418;2022-08-18T04:31:44;100344.50;;;29.17;100.00
62694;BME280;48759;52.544;13.418;2022-08-18T04:34:12;100344.22;;;29.51;99.92
62694;BME280;48759;52.544;13.418;2022-08-18T04:36:40;100340.91;;;29.30;100.00
62694;BME280;48759;52.544;13.418;2022-08-18T04:39:09;100339.22;;;29.48;100.00
62694;BME280;48759;52.544;13.418;2022-08-18T04:41:37;100342.47;;;29.22;100.00
62694;BME280;48759;52.544;13.418;2022-08-18T04:44:06;100339.84;;;29.45;100.00
62694;BME280;48759;52.544;13.418;2022-08-18T04:46:34;100339.84;;;29.58;98.97
62694;BME280;48759;52.544;13.418;2022-08-18T04:49:02;100347.53;;;29.85;97.92
62694;BME280;48759;52.544;13.418;2022-08-18T04:51:29;100351.00;;;30.23;94.45
62694;BME280;48759;52.544;13.418;2022-08-18T04:53:56;100351.09;;;30.32;92.64
62694;BME280;48759;52.544;13.418;2022-08-18T04:56:27;100352.25;;;30.17;94.18
62694;BME280;48759;52.544;13.418;2022-08-18T04:58:56;100346.22;;;30.10;94.63
62694;BME280;48759;52.544;13.418;2022-08-18T05:01:25;100354.56;;;30.78;90.10
62694;BME280;48759;52.544;13.418;2022-08-18T05:03:53;100348.72;;;30.88;85.04
62694;BME280;48759;52.544;13.418;2022-08-18T05:06:22;100362.19;;;31.58;80.20
62694;BME280;48759;52.544;13.418;2022-08-18T05:08:49;100359.31;;;31.72;77.77
62694;BME280;48759;52.544;13.418;2022-08-18T05:11:17;100362.84;;;31.33;80.21
62694;BME280;48759;52.544;13.418;2022-08-18T05:13:44;100367.19;;;31.39;80.93
62694;BME280;48759;52.544;13.418;2022-08-18T05:16:10;100367.59;;;31.24;81.04
62694;BME280;48759;52.544;13.418;2022-08-18T05:18:37;100376.56;;;31.48;79.90
62694;BME280;48759;52.544;13.418;2022-08-18T05:21:05;100364.78;;;31.24;80.37
62694;BME280;48759;52.544;13.418;2022-08-18T05:23:34;100358.31;;;31.77;76.34
62694;BME280;48759;52.544;13.418;2022-08-18T05:26:02;100365.94;;;31.68;79.16
62694;BME280;48759;52.544;13.418;2022-08-18T05:28:29;100374.06;;;31.24;81.35
62694;BME280;48759;52.544;13.418;2022-08-18T05:30:56;100370.91;;;31.48;77.37
62694;BME280;48759;52.544;13.418;2022-08-18T05:33:23;100382.22;;;31.48;78.58
62694;BME280;48759;52.544;13.418;2022-08-18T05:35:54;100383.88;;;31.27;78.38
62694;BME280;48759;52.544;13.418;2022-08-18T05:38:37;100381.44;;;30.35;90.75
62694;BME280;48759;52.544;13.418;2022-08-18T05:41:09;100383.94;;;31.80;76.84
62694;BME280;48759;52.544;13.418;2022-08-18T05:43:37;100378.28;;;32.68;69.11
62694;BME280;48759;52.544;13.418;2022-08-18T05:46:06;100387.06;;;32.58;65.17
62694;BME280;48759;52.544;13.418;2022-08-18T05:48:33;100385.53;;;32.34;67.48
62694;BME280;48759;52.544;13.418;2022-08-18T05:51:06;100388.41;;;32.52;68.04
62694;BME280;48759;52.544;13.418;2022-08-18T05:53:37;100389.75;;;32.63;68.21
62694;BME280;48759;52.544;13.418;2022-08-18T05:56:27;100396.72;;;32.57;67.37
62694;BME280;48759;52.544;13.418;2022-08-18T05:59:13;100388.50;;;33.72;61.56
62694;BME280;48759;52.544;13.418;2022-08-18T06:01:45;100386.81;;;33.02;63.71
62694;BME280;48759;52.544;13.418;2022-08-18T06:04:22;100390.00;;;33.44;61.63
62694;BME280;48759;52.544;13.418;2022-08-18T06:06:52;100385.50;;;33.43;60.25
62694;BME280;48759;52.544;13.418;2022-08-18T06:09:30;100388.16;;;33.13;62.06
62694;BME280;48759;52.544;13.418;2022-08-18T06:12:05;100391.03;;;33.22;62.11
62694;BME280;48759;52.544;13.418;2022-08-18T06:14:36;100389.78;;;33.66;60.18
62694;BME280;48759;52.544;13.418;2022-08-18T06:17:13;100388.53;;;33.38;58.38
62694;BME280;48759;52.544;13.418;2022-08-18T06:19:46;100403.50;;;33.30;58.26
62694;BME280;48759;52.544;13.418;2022-08-18T06:22:24;100423.59;;;33.88;55.62
62694;BME280;48759;52.544;13.418;2022-08-18T06:25:00;100424.78;;;33.70;54.62
62694;BME280;48759;52.544;13.418;2022-08-18T06:27:36;100416.94;;;32.90;57.19
62694;BME280;48759;52.544;13.418;2022-08-18T06:30:09;100412.28;;;33.20;54.64
62694;BME280;48759;52.544;13.418;2022-08-18T06:32:49;100411.63;;;33.66;55.21
62694;BME280;48759;52.544;13.418;2022-08-18T06:35:31;100414.59;;;33.95;53.49
62694;BME280;48759;52.544;13.418;2022-08-18T06:38:08;100408.97;;;34.33;53.39
62694;BME280;48759;52.544;13.418;2022-08-18T06:41:02;100415.03;;;34.06;53.50
62694;BME280;48759;52.544;13.418;2022-08-18T06:43:30;100406.03;;;34.50;52.22
62694;BME280;48759;52.544;13.418;2022-08-18T06:46:00;100411.13;;;34.65;52.64
62694;BME280;48759;52.544;13.418;2022-08-18T06:48:33;100410.91;;;34.79;50.95
62694;BME280;48759;52.544;13.418;2022-08-18T06:51:03;100410.06;;;34.79;51.88
62694;BME280;48759;52.544;13.418;2022-08-18T06:53:52;100411.78;;;33.69;52.74
62694;BME280;48759;52.544;13.418;2022-08-18T06:56:24;100414.22;;;34.43;51.04
62694;BME280;48759;52.544;13.418;2022-08-18T06:58:51;100415.47;;;34.63;49.99
62694;BME280;48759;52.544;13.418;2022-08-18T07:01:21;100405.94;;;34.38;51.51
62694;BME280;48759;52.544;13.418;2022-08-18T07:03:51;100416.63;;;34.91;50.25
62694;BME280;48759;52.544;13.418;2022-08-18T07:06:27;100415.28;;;35.18;50.43
62694;BME280;48759;52.544;13.418;2022-08-18T07:09:19;100422.19;;;35.09;51.26
62694;BME280;48759;52.544;13.418;2022-08-18T07:12:05;100425.75;;;35.26;50.34
62694;BME280;48759;52.544;13.418;2022-08-18T07:14:41;100425.88;;;35.51;50.55
62694;BME280;48759;52.544;13.418;2022-08-18T07:17:11;100417.66;;;35.70;49.19
62694;BME280;48759;52.544;13.418;2022-08-18T07:19:39;100422.75;;;36.09;48.60
62694;BME280;48759;52.544;13.418;2022-08-18T07:22:07;100417.00;;;35.73;49.31
62694;BME280;48759;52.544;13.418;2022-08-18T07:24:39;100409.22;;;35.61;48.20
62694;BME280;48759;52.544;13.418;2022-08-18T07:27:09;100413.47;;;35.88;48.11
62694;BME280;48759;52.544;13.418;2022-08-18T07:29:38;100412.97;;;36.43;47.35
62694;BME280;48759;52.544;13.418;2022-08-18T07:32:10;100422.13;;;36.73;46.10
62694;BME280;48759;52.544;13.418;2022-08-18T07:34:41;100411.78;;;36.32;47.03
62694;BME280;48759;52.544;13.418;2022-08-18T07:37:16;100418.97;;;36.05;48.61
62694;BME280;48759;52.544;13.418;2022-08-18T07:39:48;100421.88;;;36.30;47.28
62694;BME280;48759;52.544;13.418;2022-08-18T07:42:22;100423.16;;;36.32;46.39
62694;BME280;48759;52.544;13.418;2022-08-18T07:44:54;100412.06;;;36.39;46.23
62694;BME280;48759;52.544;13.418;2022-08-18T07:47:26;100420.91;;;36.26;46.60
62694;BME280;48759;52.544;13.418;2022-08-18T07:49:54;100420.56;;;36.51;45.35
62694;BME280;48759;52.544;13.418;2022-08-18T07:52:25;100427.44;;;36.87;44.74
62694;BME280;48759;52.544;13.418;2022-08-18T07:55:00;100418.22;;;36.78;43.69
62694;BME280;48759;52.544;13.418;2022-08-18T07:57:37;100421.75;;;36.87;43.45
62694;BME280;48759;52.544;13.418;2022-08-18T08:00:13;100427.22;;;36.80;43.63
62694;BME280;48759;52.544;13.418;2022-08-18T08:02:53;100428.16;;;36.72;44.12
62694;BME280;48759;52.544;13.418;2022-08-18T08:05:35;100432.28;;;37.23;43.64
62694;BME280;48759;52.544;13.418;2022-08-18T08:08:16;100433.16;;;37.39;42.92
62694;BME280;48759;52.544;13.418;2022-08-18T08:10:51;100431.50;;;37.38;42.34
62694;BME280;48759;52.544;13.418;2022-08-18T08:13:31;100441.41;;;37.56;41.53
62694;BME280;48759;52.544;13.418;2022-08-18T08:16:03;100453.88;;;37.00;42.89
62694;BME280;48759;52.544;13.418;2022-08-18T08:18:39;100452.66;;;37.93;40.93
62694;BME280;48759;52.544;13.418;2022-08-18T08:21:09;100447.75;;;38.21;40.25
62694;BME280;48759;52.544;13.418;2022-08-18T08:23:44;100452.63;;;37.37;41.79
62694;BME280;48759;52.544;13.418;2022-08-18T08:26:23;100456.13;;;37.18;42.23
62694;BME280;48759;52.544;13.418;2022-08-18T08:29:01;100445.06;;;38.28;40.57
62694;BME280;48759;52.544;13.418;2022-08-18T08:31:35;100448.94;;;37.77;41.82
62694;BME280;48759;52.544;13.418;2022-08-18T08:34:11;100454.03;;;36.79;43.15
62694;BME280;48759;52.544;13.418;2022-08-18T08:36:40;100449.41;;;36.86;43.63
62694;BME280;48759;52.544;13.418;2022-08-18T08:39:12;100449.66;;;37.74;41.27
62694;BME280;48759;52.544;13.418;2022-08-18T08:41:44;100451.88;;;37.64;41.18
62694;BME280;48759;52.544;13.418;2022-08-18T08:44:18;100455.75;;;37.20;41.69
62694;BME280;48759;52.544;13.418;2022-08-18T08:46:50;100453.28;;;37.18;41.93
62694;BME280;48759;52.544;13.418;2022-08-18T08:49:27;100451.94;;;37.28;41.27
62694;BME280;48759;52.544;13.418;2022-08-18T08:51:59;100449.97;;;37.56;40.56
62694;BME280;48759;52.544;13.418;2022-08-18T08:54:45;100464.25;;;37.44;41.04
62694;BME280;48759;52.544;13.418;2022-08-18T08:57:16;100452.44;;;36.33;43.39
62694;BME280;48759;52.544;13.418;2022-08-18T08:59:44;100446.53;;;36.50;42.85
62694;BME280;48759;52.544;13.418;2022-08-18T09:02:27;100452.31;;;36.29;42.82
62694;BME280;48759;52.544;13.418;2022-08-18T09:05:04;100439.88;;;36.58;43.00
62694;BME280;48759;52.544;13.418;2022-08-18T09:07:42;100438.41;;;36.15;43.40
62694;BME280;48759;52.544;13.418;2022-08-18T09:10:29;100429.84;;;35.91;44.68
62694;BME280;48759;52.544;13.418;2022-08-18T09:13:20;100433.88;;;35.69;45.14
62694;BME280;48759;52.544;13.418;2022-08-18T09:16:08;100434.69;;;35.70;45.25
62694;BME280;48759;52.544;13.418;2022-08-18T09:18:52;100432.94;;;35.98;45.18
62694;BME280;48759;52.544;13.418;2022-08-18T09:21:32;100427.59;;;36.66;44.78
62694;BME280;48759;52.544;13.418;2022-08-18T09:24:07;100423.44;;;36.76;43.36
62694;BME280;48759;52.544;13.418;2022-08-18T09:26:42;100423.44;;;37.68;40.97
62694;BME280;48759;52.544;13.418;2022-08-18T09:29:17;100425.31;;;36.47;41.57
62694;BME280;48759;52.544;13.418;2022-08-18T09:31:48;100411.63;;;34.21;49.24
62694;BME280;48759;52.544;13.418;2022-08-18T09:34:36;100414.91;;;38.43;41.08
62694;BME280;48759;52.544;13.418;2022-08-18T09:37:17;100415.03;;;39.51;38.32
62694;BME280;48759;52.544;13.418;2022-08-18T09:39:52;100412.84;;;39.45;37.78
62694;BME280;48759;52.544;13.418;2022-08-18T09:42:42;100423.03;;;40.49;36.73
62694;BME280;48759;52.544;13.418;2022-08-18T09:48:25;100409.94;;;35.58;43.62
62694;BME280;48759;52.544;13.418;2022-08-18T09:50:56;100403.66;;;35.65;43.86
62694;BME280;48759;52.544;13.418;2022-08-18T09:53:36;100394.38;;;35.02;45.26
62694;BME280;48759;52.544;13.418;2022-08-18T09:56:04;100395.56;;;34.72;47.57
62694;BME280;48759;52.544;13.418;2022-08-18T09:58:50;100398.28;;;34.59;47.73
62694;BME280;48759;52.544;13.418;2022-08-18T10:01:20;100397.47;;;35.09;45.54
62694;BME280;48759;52.544;13.418;2022-08-18T10:07:26;100395.31;;;36.74;43.01
62694;BME280;48759;52.544;13.418;2022-08-18T10:10:12;100389.34;;;37.16;41.11
62694;BME280;48759;52.544;13.418;2022-08-18T10:13:06;100389.16;;;36.36;42.47
62694;BME280;48759;52.544;13.418;2022-08-18T10:15:46;100377.97;;;35.61;43.38
62694;BME280;48759;52.544;13.418;2022-08-18T10:21:14;100383.09;;;38.76;38.16
62694;BME280;48759;52.544;13.418;2022-08-18T10:23:50;100383.34;;;39.60;36.85
62694;BME280;48759;52.544;13.418;2022-08-18T10:29:55;100382.88;;;40.69;34.67
62694;BME280;48759;52.544;13.418;2022-08-18T10:32:44;100383.47;;;40.09;35.84
62694;BME280;48759;52.544;13.418;2022-08-18T10:38:26;100390.72;;;40.03;35.87
62694;BME280;48759;52.544;13.418;2022-08-18T10:40:59;100381.44;;;39.10;36.55
62694;BME280;48759;52.544;13.418;2022-08-18T10:43:34;100384.53;;;36.43;40.45
62694;BME280;48759;52.544;13.418;2022-08-18T10:46:02;100390.63;;;38.18;38.58
62694;BME280;48759;52.544;13.418;2022-08-18T10:48:31;100386.94;;;39.76;35.78
62694;BME280;48759;52.544;13.418;2022-08-18T10:51:04;100382.44;;;39.37;36.21
62694;BME280;48759;52.544;13.418;2022-08-18T10:53:37;100379.00;;;40.84;34.41
62694;BME280;48759;52.544;13.418;2022-08-18T10:56:11;100377.75;;;40.81;33.90
62694;BME280;48759;52.544;13.418;2022-08-18T10:58:59;100377.94;;;40.20;34.20
62694;BME280;48759;52.544;13.418;2022-08-18T11:01:39;100376.25;;;40.38;33.91
62694;BME280;48759;52.544;13.418;2022-08-18T11:04:23;100375.66;;;37.77;36.30
62694;BME280;48759;52.544;13.418;2022-08-18T11:07:01;100370.53;;;36.63;37.79
62694;BME280;48759;52.544;13.418;2022-08-18T11:09:29;100366.88;;;35.35;40.89
62694;BME280;48759;52.544;13.418;2022-08-18T11:12:00;100366.75;;;38.57;36.73
62694;BME280;48759;52.544;13.418;2022-08-18T11:14:56;100369.50;;;36.55;37.42
62694;BME280;48759;52.544;13.418;2022-08-18T11:17:34;100364.31;;;36.97;37.42
62694;BME280;48759;52.544;13.418;2022-08-18T11:20:06;100356.19;;;36.71;38.78
62694;BME280;48759;52.544;13.418;2022-08-18T11:22:35;100357.69;;;38.05;37.29
62694;BME280;48759;52.544;13.418;2022-08-18T11:25:19;100364.56;;;38.51;35.44
62694;BME280;48759;52.544;13.418;2022-08-18T11:27:48;100351.25;;;38.93;35.35
62694;BME280;48759;52.544;13.418;2022-08-18T11:30:24;100354.31;;;39.00;34.99
62694;BME280;48759;52.544;13.418;2022-08-18T11:32:51;100358.25;;;39.73;33.87
62694;BME280;48759;52.544;13.418;2022-08-18T11:35:20;100359.50;;;39.95;33.08
62694;BME280;48759;52.544;13.418;2022-08-18T11:37:53;100356.97;;;40.61;32.10
62694;BME280;48759;52.544;13.418;2022-08-18T11:40:29;100358.94;;;40.57;32.00
62694;BME280;48759;52.544;13.418;2022-08-18T11:43:02;100362.91;;;40.49;31.90
62694;BME280;48759;52.544;13.418;2022-08-18T11:45:33;100361.91;;;40.64;30.95
62694;BME280;48759;52.544;13.418;2022-08-18T11:48:10;100355.75;;;40.36;30.65
62694;BME280;48759;52.544;13.418;2022-08-18T11:50:46;100348.78;;;39.88;31.60
62694;BME280;48759;52.544;13.418;2022-08-18T11:53:15;100353.66;;;39.87;31.33
62694;BME280;48759;52.544;13.418;2022-08-18T11:56:02;100331.59;;;39.27;32.58
62694;BME280;48759;52.544;13.418;2022-08-18T11:58:40;100335.56;;;39.38;31.97
62694;BME280;48759;52.544;13.418;2022-08-18T12:01:08;100330.22;;;38.82;32.16
62694;BME280;48759;52.544;13.418;2022-08-18T12:03:40;100335.13;;;38.82;31.22
62694;BME280;48759;52.544;13.418;2022-08-18T12:06:26;100336.84;;;39.63;31.12
62694;BME280;48759;52.544;13.418;2022-08-18T12:08:58;100335.03;;;38.78;31.10
62694;BME280;48759;52.544;13.418;2022-08-18T12:11:28;100333.03;;;38.63;31.84
62694;BME280;48759;52.544;13.418;2022-08-18T12:14:01;100332.41;;;38.54;32.53
62694;BME280;48759;52.544;13.418;2022-08-18T12:16:34;100330.00;;;40.36;30.08
62694;BME280;48759;52.544;13.418;2022-08-18T12:19:01;100340.19;;;40.11;29.85
62694;BME280;48759;52.544;13.418;2022-08-18T12:21:28;100329.19;;;39.48;30.64
62694;BME280;48759;52.544;13.418;2022-08-18T12:23:55;100336.22;;;38.77;31.25
62694;BME280;48759;52.544;13.418;2022-08-18T12:26:21;100332.53;;;39.11;30.37
62694;BME280;48759;52.544;13.418;2022-08-18T12:28:48;100334.66;;;41.04;28.68
62694;BME280;48759;52.544;13.418;2022-08-18T12:31:15;100326.72;;;39.88;29.34
62694;BME280;48759;52.544;13.418;2022-08-18T12:33:42;100326.69;;;40.60;28.80
62694;BME280;48759;52.544;13.418;2022-08-18T12:36:08;100325.41;;;41.85;28.51
62694;BME280;48759;52.544;13.418;2022-08-18T12:38:35;100320.81;;;41.39;28.32
62694;BME280;48759;52.544;13.418;2022-08-18T12:41:02;100321.84;;;41.98;27.70
62694;BME280;48759;52.544;13.418;2022-08-18T12:43:29;100309.31;;;42.13;27.03
62694;BME280;48759;52.544;13.418;2022-08-18T12:45:57;100316.34;;;40.52;29.13
62694;BME280;48759;52.544;13.418;2022-08-18T12:48:26;100303.16;;;38.76;32.02
62694;BME280;48759;52.544;13.418;2022-08-18T12:50:55;100298.84;;;39.63;31.43
62694;BME280;48759;52.544;13.418;2022-08-18T12:53:23;100297.84;;;39.74;30.78
62694;BME280;48759;52.544;13.418;2022-08-18T12:55:50;100291.88;;;39.60;31.08
62694;BME280;48759;52.544;13.418;2022-08-18T12:58:16;100293.28;;;39.93;30.42
62694;BME280;48759;52.544;13.418;2022-08-18T13:00:43;100301.31;;;42.37;27.71
62694;BME280;48759;52.544;13.418;2022-08-18T13:03:10;100297.63;;;41.92;28.16
62694;BME280;48759;52.544;13.418;2022-08-18T13:05:38;100291.91;;;43.27;26.93
62694;BME280;48759;52.544;13.418;2022-08-18T13:08:08;100289.03;;;40.88;28.70
62694;BME280;48759;52.544;13.418;2022-08-18T13:10:38;100290.66;;;41.19;28.05
62694;BME280;48759;52.544;13.418;2022-08-18T13:13:05;100289.25;;;42.79;27.70
62694;BME280;48759;52.544;13.418;2022-08-18T13:15:32;100287.34;;;40.84;29.10
62694;BME280;48759;52.544;13.418;2022-08-18T13:18:00;100284.97;;;40.33;29.56